Terminal Aerodrome Forecast
Issued by NWS

Home | Current Version | Previous Version | Text Only | Print | Product List | Glossary On
Versions: 1 2 3 4 5 6 7 8 9 10 11 12 13
252
FTUS46 KSEW 201122
TAFBLI
TAF
KBLI 201122Z 2012/2112 17009G17KT P6SM SCT050 OVC100
     FM201500 17010G18KT P6SM VCSH BKN030 OVC050
     FM202000 17012G18KT P6SM VCSH SCT035 BKN060
     FM210200 17010KT P6SM SCT040 BKN080=

USA.gov is the U.S. government's official web portal to all federal, state and local government web resources and services.